createdAt,value
2022-08-28T00:00:21.207Z,4.18
2022-08-28T00:03:23.043Z,4.62
2022-08-28T00:06:25.113Z,4.35
2022-08-28T00:09:26.766Z,4.00
2022-08-28T00:12:28.641Z,4.00
2022-08-28T00:15:33.232Z,4.32
2022-08-28T00:18:35.048Z,4.60
2022-08-28T00:21:37.545Z,3.75
2022-08-28T00:24:39.342Z,4.15
2022-08-28T00:27:52.985Z,3.87
2022-08-28T00:30:58.463Z,4.28
2022-08-28T00:34:03.096Z,4.30
2022-08-28T00:37:05.041Z,4.25
2022-08-28T00:40:09.083Z,4.70
2022-08-28T00:43:22.802Z,4.53
2022-08-28T00:46:24.469Z,4.43
2022-08-28T00:49:37.609Z,4.40
2022-08-28T00:52:40.395Z,4.47
2022-08-28T00:55:43.217Z,4.35
2022-08-28T00:58:47.968Z,4.30
2022-08-28T01:01:54.301Z,4.05
2022-08-28T01:04:56.291Z,4.25
2022-08-28T01:07:59.386Z,4.15
2022-08-28T01:11:03.686Z,4.87
2022-08-28T01:14:06.566Z,4.30
2022-08-28T01:17:09.995Z,4.28
2022-08-28T01:20:16.328Z,4.32
2022-08-28T01:23:47.137Z,4.90
2022-08-28T01:26:48.852Z,4.40
2022-08-28T01:29:51.266Z,4.78
2022-08-28T01:32:55.986Z,4.90
2022-08-28T01:35:59.296Z,4.85
2022-08-28T01:39:16.459Z,4.62
2022-08-28T01:42:18.102Z,5.75
2022-08-28T01:45:21.161Z,4.97
2022-08-28T01:48:25.747Z,5.55
2022-08-28T01:51:27.798Z,4.65
2022-08-28T01:54:37.126Z,4.93
2022-08-28T01:57:49.745Z,5.00
2022-08-28T02:00:53.158Z,5.00
2022-08-28T02:03:55.338Z,4.75
2022-08-28T02:06:57.128Z,4.70
2022-08-28T02:09:59.114Z,4.78
2022-08-28T02:13:01.516Z,4.35
2022-08-28T02:16:04.882Z,4.53
2022-08-28T02:19:06.568Z,4.70
2022-08-28T02:22:09.462Z,4.57
2022-08-28T02:25:14.175Z,4.65
2022-08-28T02:28:15.876Z,4.78
2022-08-28T02:31:17.640Z,4.93
2022-08-28T02:34:19.558Z,5.07
2022-08-28T02:37:23.557Z,5.37
2022-08-28T02:40:26.078Z,5.20
2022-08-28T02:43:27.766Z,4.43
2022-08-28T02:46:30.266Z,4.97
2022-08-28T02:49:36.473Z,4.97
2022-08-28T02:52:40.384Z,4.53
2022-08-28T02:55:42.377Z,5.37
2022-08-28T02:58:44.574Z,4.78
2022-08-28T03:01:46.375Z,4.53
2022-08-28T03:04:48.510Z,5.00
2022-08-28T03:07:53.265Z,4.72
2022-08-28T03:10:55.948Z,4.70
2022-08-28T03:13:57.721Z,4.78
2022-08-28T03:17:01.561Z,5.15
2022-08-28T03:20:06.110Z,4.93
2022-08-28T03:23:26.803Z,4.93
2022-08-28T03:26:28.726Z,4.97
2022-08-28T03:29:31.691Z,4.78
2022-08-28T03:32:34.022Z,4.78
2022-08-28T03:35:37.385Z,4.90
2022-08-28T03:38:39.529Z,5.10
2022-08-28T03:41:41.428Z,5.62
2022-08-28T03:44:43.115Z,4.82
2022-08-28T03:47:45.021Z,5.22
2022-08-28T03:50:47.863Z,5.40
2022-08-28T03:53:51.178Z,5.28
2022-08-28T03:56:53.106Z,5.95
2022-08-28T03:59:54.810Z,5.45
2022-08-28T04:02:56.718Z,5.55
2022-08-28T04:05:58.773Z,5.20
2022-08-28T04:09:00.699Z,5.05
2022-08-28T04:12:02.968Z,5.75
2022-08-28T04:15:06.960Z,5.18
2022-08-28T04:18:10.357Z,5.70
2022-08-28T04:21:16.578Z,5.30
2022-08-28T04:24:18.617Z,5.40
2022-08-28T04:27:20.717Z,5.93
2022-08-28T04:30:22.344Z,5.03
2022-08-28T04:33:26.208Z,5.15
2022-08-28T04:36:28.513Z,5.22
2022-08-28T04:39:30.131Z,5.07
2022-08-28T04:42:32.085Z,5.43
2022-08-28T04:45:34.392Z,5.20
2022-08-28T04:48:36.560Z,4.80
2022-08-28T04:51:42.133Z,5.57
2022-08-28T04:54:44.122Z,4.87
2022-08-28T04:57:45.739Z,5.30
2022-08-28T05:00:49.824Z,5.20
2022-08-28T05:03:55.778Z,4.70
2022-08-28T05:06:57.893Z,5.53
2022-08-28T05:09:59.651Z,4.97
2022-08-28T05:13:01.717Z,5.72
2022-08-28T05:16:04.735Z,4.97
2022-08-28T05:19:06.527Z,4.50
2022-08-28T05:22:10.246Z,4.32
2022-08-28T05:25:12.607Z,4.90
2022-08-28T05:28:17.051Z,4.57
2022-08-28T05:31:21.929Z,4.68
2022-08-28T05:34:24.032Z,4.55
2022-08-28T05:37:25.984Z,4.32
2022-08-28T05:40:27.902Z,4.75
2022-08-28T05:43:31.477Z,4.87
2022-08-28T05:46:34.719Z,4.37
2022-08-28T05:49:36.785Z,4.12
2022-08-28T05:52:39.569Z,4.00
2022-08-28T05:55:41.467Z,4.40
2022-08-28T05:58:43.195Z,4.22
2022-08-28T06:01:47.754Z,3.90
2022-08-28T06:04:50.496Z,4.00
2022-08-28T06:07:52.761Z,4.18
2022-08-28T06:10:54.887Z,4.07
2022-08-28T06:14:02.592Z,4.18
2022-08-28T06:17:05.202Z,3.75
2022-08-28T06:20:07.860Z,3.97
2022-08-28T06:23:11.653Z,3.80
2022-08-28T06:26:13.574Z,3.72
2022-08-28T06:29:18.525Z,3.60
2022-08-28T06:32:22.870Z,3.47
2022-08-28T06:35:27.853Z,3.75
2022-08-28T06:38:29.995Z,3.53
2022-08-28T06:41:33.502Z,3.50
2022-08-28T06:44:35.234Z,3.80
2022-08-28T06:47:37.308Z,4.03
2022-08-28T06:50:45.236Z,3.12
2022-08-28T06:53:47.343Z,3.58
2022-08-28T06:56:49.359Z,3.12
2022-08-28T06:59:51.197Z,3.17
2022-08-28T07:02:52.937Z,3.17
2022-08-28T07:05:59.390Z,3.40
2022-08-28T07:09:01.525Z,3.78
2022-08-28T07:12:03.786Z,3.47
2022-08-28T07:15:09.502Z,3.50
2022-08-28T07:18:11.347Z,3.03
2022-08-28T07:21:16.411Z,3.58
2022-08-28T07:24:18.592Z,3.10
2022-08-28T07:27:22.305Z,4.93
2022-08-28T07:30:24.253Z,4.30
2022-08-28T07:33:27.936Z,3.10
2022-08-28T07:36:30.153Z,3.28
2022-08-28T07:39:32.183Z,3.28
2022-08-28T07:42:52.678Z,3.50
2022-08-28T07:46:02.506Z,2.80
2022-08-28T07:49:06.526Z,3.17
2022-08-28T07:52:09.870Z,3.22
2022-08-28T07:55:11.490Z,2.92
2022-08-28T07:58:13.811Z,2.75
2022-08-28T08:01:17.749Z,2.87
2022-08-28T08:04:22.509Z,3.00
2022-08-28T08:07:24.372Z,2.95
2022-08-28T08:10:26.214Z,4.10
2022-08-28T08:13:37.130Z,2.92
2022-08-28T08:16:42.437Z,2.22
2022-08-28T08:19:44.091Z,3.72
2022-08-28T08:22:45.693Z,2.67
2022-08-28T08:25:58.955Z,2.65
2022-08-28T08:29:01.337Z,2.97
2022-08-28T08:32:07.023Z,2.92
2022-08-28T08:35:09.169Z,2.78
2022-08-28T08:38:11.766Z,3.00
2022-08-28T08:41:34.905Z,3.40
2022-08-28T08:44:43.663Z,2.70
2022-08-28T08:47:51.397Z,3.47
2022-08-28T08:50:53.973Z,2.62
2022-08-28T08:54:10.129Z,2.90
2022-08-28T08:57:14.751Z,3.20
2022-08-28T09:00:18.850Z,2.95
2022-08-28T09:03:25.832Z,2.65
2022-08-28T09:06:50.080Z,2.80
2022-08-28T09:09:54.888Z,2.80
2022-08-28T09:13:05.549Z,3.13
2022-08-28T09:16:24.750Z,3.05
2022-08-28T09:19:27.243Z,3.72
2022-08-28T09:22:28.880Z,2.62
2022-08-28T09:26:09.257Z,3.58
2022-08-28T09:29:18.269Z,2.72
2022-08-28T09:32:31.087Z,2.87
2022-08-28T09:35:37.417Z,2.83
2022-08-28T09:38:39.495Z,2.83
2022-08-28T09:42:18.103Z,3.08
2022-08-28T09:45:23.178Z,3.15
2022-08-28T09:48:45.912Z,3.28
2022-08-28T09:51:47.897Z,2.70
2022-08-28T09:54:50.741Z,3.12
2022-08-28T09:57:54.802Z,3.10
2022-08-28T10:01:10.159Z,3.10
2022-08-28T10:04:33.794Z,3.28
2022-08-28T10:07:41.920Z,3.08
2022-08-28T10:10:53.559Z,2.78
2022-08-28T10:14:06.858Z,2.97
2022-08-28T10:17:14.302Z,3.62
2022-08-28T10:20:21.850Z,3.10
2022-08-28T10:23:27.441Z,3.30
2022-08-28T10:30:12.492Z,3.37
2022-08-28T10:33:30.106Z,4.07
2022-08-28T10:36:35.152Z,3.53
2022-08-28T10:39:57.974Z,6.33
2022-08-28T10:43:03.272Z,3.75
2022-08-28T10:46:12.684Z,3.80
2022-08-28T10:49:26.742Z,3.85
2022-08-28T10:52:36.354Z,3.30
2022-08-28T10:55:48.963Z,3.55
2022-08-28T10:58:57.365Z,3.67
2022-08-28T11:02:00.771Z,3.72
2022-08-28T11:05:05.245Z,3.30
2022-08-28T11:08:12.677Z,3.28
2022-08-28T11:11:15.054Z,3.60
2022-08-28T11:14:48.900Z,3.60
2022-08-28T11:17:52.365Z,3.67
2022-08-28T11:21:03.259Z,3.92
2022-08-28T11:24:21.011Z,3.70
2022-08-28T11:27:31.336Z,3.85
2022-08-28T11:30:36.509Z,3.90
2022-08-28T11:33:38.160Z,3.72
2022-08-28T11:36:43.665Z,4.20
2022-08-28T11:39:45.434Z,3.70
2022-08-28T11:42:50.644Z,3.78
2022-08-28T11:45:55.267Z,3.60
2022-08-28T11:48:59.864Z,3.58
2022-08-28T11:52:10.169Z,6.03
2022-08-28T11:55:17.697Z,4.62
2022-08-28T11:58:47.921Z,4.10
2022-08-28T12:01:51.481Z,4.72
2022-08-28T12:04:53.521Z,4.25
2022-08-28T12:07:55.191Z,4.15
2022-08-28T12:10:58.960Z,4.40
2022-08-28T12:14:00.644Z,4.20
2022-08-28T12:17:02.587Z,4.25
2022-08-28T12:20:10.029Z,4.10
2022-08-28T12:23:23.886Z,4.07
2022-08-28T12:26:45.131Z,3.78
2022-08-28T12:29:50.666Z,4.05
2022-08-28T12:33:36.337Z,3.67
2022-08-28T12:36:38.194Z,4.00
2022-08-28T12:39:42.575Z,3.72
2022-08-28T12:42:55.861Z,3.60
2022-08-28T12:46:02.346Z,3.47
2022-08-28T12:49:25.247Z,4.05
2022-08-28T12:52:27.261Z,4.35
2022-08-28T12:55:29.588Z,3.92
2022-08-28T12:58:36.593Z,3.87
2022-08-28T13:01:39.178Z,3.92
2022-08-28T13:05:05.028Z,3.85
2022-08-28T13:08:12.887Z,3.35
2022-08-28T13:11:19.759Z,3.75
2022-08-28T13:14:43.318Z,3.67
2022-08-28T13:17:51.666Z,3.67
2022-08-28T13:21:10.584Z,3.95
2022-08-28T13:24:21.985Z,3.90
2022-08-28T13:27:24.872Z,4.12
2022-08-28T13:30:33.673Z,4.00
2022-08-28T13:33:35.969Z,4.00
2022-08-28T13:36:42.858Z,3.85
2022-08-28T13:39:44.813Z,3.83
2022-08-28T13:42:47.886Z,3.90
2022-08-28T13:45:51.303Z,4.15
2022-08-28T13:48:52.996Z,4.40
2022-08-28T13:51:57.398Z,4.07
2022-08-28T13:54:59.221Z,3.85
2022-08-28T13:58:01.420Z,3.90
2022-08-28T14:01:04.680Z,3.92
2022-08-28T14:04:06.360Z,4.45
2022-08-28T14:07:08.811Z,4.53
2022-08-28T14:10:10.662Z,4.40
2022-08-28T14:13:12.764Z,4.05
2022-08-28T14:16:16.912Z,4.18
2022-08-28T14:19:19.738Z,4.22
2022-08-28T14:22:21.818Z,4.43
2022-08-28T14:25:24.094Z,4.18
2022-08-28T14:28:25.792Z,4.60
2022-08-28T14:31:28.993Z,4.12
2022-08-28T14:34:31.668Z,4.35
2022-08-28T14:37:33.405Z,5.05
2022-08-28T14:40:38.468Z,4.47
2022-08-28T14:43:40.855Z,4.40
2022-08-28T14:46:44.702Z,4.25
2022-08-28T14:49:46.588Z,4.25
2022-08-28T14:52:50.661Z,4.07
2022-08-28T14:55:52.767Z,4.20
2022-08-28T14:58:55.099Z,4.43
2022-08-28T15:02:00.085Z,4.95
2022-08-28T15:05:01.985Z,4.18
2022-08-28T15:08:09.387Z,3.90
2022-08-28T15:11:18.445Z,7.85
2022-08-28T15:14:20.903Z,9.02
2022-08-28T15:17:23.628Z,4.10
2022-08-28T15:20:45.123Z,4.05
2022-08-28T15:23:50.494Z,4.05
2022-08-28T15:26:52.773Z,3.65
2022-08-28T15:29:54.507Z,2.90
2022-08-28T15:32:56.566Z,3.42
2022-08-28T15:35:58.492Z,4.10
2022-08-28T15:39:19.024Z,3.72
2022-08-28T15:42:21.003Z,3.72
2022-08-28T15:45:22.909Z,3.40
2022-08-28T15:48:24.978Z,3.80
2022-08-28T15:51:26.759Z,3.87
2022-08-28T15:54:30.064Z,4.10
2022-08-28T15:57:32.471Z,3.80
2022-08-28T16:00:34.704Z,4.03
2022-08-28T16:03:37.027Z,4.10
2022-08-28T16:06:38.616Z,4.00
2022-08-28T16:09:40.731Z,4.45
2022-08-28T16:12:42.625Z,4.53
2022-08-28T16:15:48.050Z,4.25
2022-08-28T16:18:49.856Z,4.15
2022-08-28T16:21:51.954Z,3.92
2022-08-28T16:24:54.052Z,4.28
2022-08-28T16:27:57.469Z,4.60
2022-08-28T16:31:02.849Z,4.40
2022-08-28T16:34:10.826Z,4.60
2022-08-28T16:37:19.460Z,4.28
2022-08-28T16:40:23.523Z,4.62
2022-08-28T16:43:25.603Z,4.53
2022-08-28T16:46:28.195Z,5.55
2022-08-28T16:49:30.215Z,4.62
2022-08-28T16:52:31.923Z,5.00
2022-08-28T16:55:34.857Z,4.97
2022-08-28T16:58:41.335Z,5.15
2022-08-28T17:01:43.082Z,6.78
2022-08-28T17:04:45.163Z,6.30
2022-08-28T17:07:48.222Z,4.95
2022-08-28T17:10:50.394Z,5.37
2022-08-28T17:13:52.143Z,5.20
2022-08-28T17:16:54.164Z,5.28
2022-08-28T17:19:55.850Z,5.32
2022-08-28T17:22:57.693Z,5.45
2022-08-28T17:25:59.555Z,5.45
2022-08-28T17:29:01.467Z,5.20
2022-08-28T17:32:05.341Z,4.72
2022-08-28T17:35:07.577Z,4.57
2022-08-28T17:38:09.507Z,3.90
2022-08-28T17:41:12.082Z,4.07
2022-08-28T17:44:14.416Z,3.97
2022-08-28T17:47:16.520Z,4.05
2022-08-28T17:50:18.820Z,4.10
2022-08-28T17:53:24.638Z,4.12
2022-08-28T17:56:35.959Z,3.67
2022-08-28T17:59:38.366Z,4.28
2022-08-28T18:02:40.398Z,5.10
2022-08-28T18:05:42.728Z,5.35
2022-08-28T18:08:46.599Z,6.00
2022-08-28T18:11:49.084Z,6.05
2022-08-28T18:14:51.335Z,6.70
2022-08-28T18:17:53.507Z,5.25
2022-08-28T18:20:56.047Z,5.28
2022-08-28T18:23:58.398Z,5.12
2022-08-28T18:27:00.656Z,4.65
2022-08-28T18:30:03.654Z,5.47
2022-08-28T18:33:05.812Z,5.20
2022-08-28T18:36:09.673Z,5.10
2022-08-28T18:39:13.078Z,5.10
2022-08-28T18:42:16.374Z,5.85
2022-08-28T18:45:19.115Z,5.40
2022-08-28T18:48:22.163Z,5.57
2022-08-28T18:51:24.637Z,5.78
2022-08-28T18:54:27.948Z,5.53
2022-08-28T18:57:30.450Z,6.40
2022-08-28T19:00:34.198Z,5.65
2022-08-28T19:03:37.177Z,5.90
2022-08-28T19:06:41.309Z,5.87
2022-08-28T19:09:43.590Z,6.35
2022-08-28T19:12:45.973Z,5.97
2022-08-28T19:15:53.055Z,5.87
2022-08-28T19:18:56.247Z,6.28
2022-08-28T19:22:00.926Z,5.95
2022-08-28T19:25:13.257Z,6.10
2022-08-28T19:28:30.517Z,5.50
2022-08-28T19:31:32.814Z,4.95
2022-08-28T19:34:35.521Z,5.68
2022-08-28T19:37:42.175Z,5.75
2022-08-28T19:40:45.610Z,5.15
2022-08-28T19:43:48.102Z,5.20
2022-08-28T19:46:50.378Z,4.87
2022-08-28T19:49:54.608Z,4.47
2022-08-28T19:56:02.096Z,4.78
2022-08-28T19:59:07.244Z,4.22
2022-08-28T20:02:09.690Z,3.83
2022-08-28T20:05:12.665Z,3.70
2022-08-28T20:08:16.724Z,3.80
2022-08-28T20:11:30.235Z,3.83
2022-08-28T20:14:34.603Z,3.60
2022-08-28T20:17:43.700Z,3.17
2022-08-28T20:20:48.994Z,2.95
2022-08-28T20:23:51.104Z,3.83
2022-08-28T20:26:53.290Z,3.20
2022-08-28T20:29:55.020Z,2.70
2022-08-28T20:32:58.129Z,3.35
2022-08-28T20:36:06.229Z,2.62
2022-08-28T20:39:12.812Z,2.75
2022-08-28T20:42:14.644Z,2.58
2022-08-28T20:45:18.615Z,2.90
2022-08-28T20:48:20.272Z,2.60
2022-08-28T20:51:41.855Z,2.70
2022-08-28T20:54:44.843Z,2.37
2022-08-28T20:57:46.518Z,2.58
2022-08-28T21:00:48.397Z,2.58
2022-08-28T21:06:57.633Z,2.60
2022-08-28T21:10:05.610Z,3.05
2022-08-28T21:13:10.196Z,2.53
2022-08-28T21:16:11.855Z,2.92
2022-08-28T21:19:16.404Z,2.45
2022-08-28T21:22:18.544Z,2.87
2022-08-28T21:25:26.464Z,2.58
2022-08-28T21:28:28.769Z,2.45
2022-08-28T21:31:30.421Z,3.25
2022-08-28T21:34:32.387Z,3.67
2022-08-28T21:37:35.141Z,3.42
2022-08-28T21:40:36.836Z,3.97
2022-08-28T21:43:46.737Z,4.05
2022-08-28T21:46:48.367Z,3.83
2022-08-28T21:49:54.911Z,3.70
2022-08-28T21:52:57.061Z,3.80
2022-08-28T21:55:58.724Z,3.70
2022-08-28T21:59:01.710Z,3.28
2022-08-28T22:02:04.250Z,3.58
2022-08-28T22:05:06.389Z,3.67
2022-08-28T22:08:08.080Z,3.47
2022-08-28T22:11:10.865Z,3.72
2022-08-28T22:14:14.016Z,3.70
2022-08-28T22:17:16.247Z,3.80
2022-08-28T22:20:18.015Z,3.92
2022-08-28T22:23:19.948Z,4.00
2022-08-28T22:26:22.205Z,3.92
2022-08-28T22:29:23.875Z,3.95
2022-08-28T22:32:26.964Z,4.60
2022-08-28T22:35:29.146Z,6.00
2022-08-28T22:38:31.030Z,4.72
2022-08-28T22:41:33.060Z,5.28
2022-08-28T22:44:35.459Z,5.05
2022-08-28T22:47:37.473Z,4.50
2022-08-28T22:50:39.109Z,6.18
2022-08-28T22:53:43.936Z,5.45
2022-08-28T22:56:45.676Z,5.95
2022-08-28T22:59:47.649Z,5.80
2022-08-28T23:02:50.421Z,4.60
2022-08-28T23:05:52.527Z,5.55
2022-08-28T23:08:54.126Z,5.57
2022-08-28T23:11:59.990Z,4.68
2022-08-28T23:15:04.628Z,5.27
2022-08-28T23:18:06.699Z,5.15
2022-08-28T23:21:09.779Z,5.03
2022-08-28T23:24:16.130Z,5.57
2022-08-28T23:30:44.094Z,5.25
2022-08-28T23:33:50.359Z,4.60
2022-08-28T23:36:53.640Z,4.35
2022-08-28T23:39:55.413Z,4.05
2022-08-28T23:42:58.178Z,3.72
2022-08-28T23:46:00.953Z,4.65
2022-08-28T23:49:03.053Z,3.87
2022-08-28T23:52:04.704Z,3.65
2022-08-28T23:55:08.047Z,3.50
2022-08-28T23:58:10.123Z,3.20
